sensor_id;sensor_type;location;lat;lon;timestamp;temperature;humidity
42145;DHT22;27813;43.516;11.890;2022-09-09T03:22:29;18.10;94.60
42145;DHT22;27813;43.516;11.890;2022-09-09T03:26:36;18.10;94.60
42145;DHT22;27813;43.516;11.890;2022-09-09T03:30:44;18.10;94.40
42145;DHT22;27813;43.516;11.890;2022-09-09T03:34:49;18.00;94.60
42145;DHT22;27813;43.516;11.890;2022-09-09T03:38:54;18.00;94.70
42145;DHT22;27813;43.516;11.890;2022-09-09T03:43:01;18.00;94.60
42145;DHT22;27813;43.516;11.890;2022-09-09T03:47:05;18.00;94.50
42145;DHT22;27813;43.516;11.890;2022-09-09T03:51:11;18.00;94.90
42145;DHT22;27813;43.516;11.890;2022-09-09T03:55:16;18.20;95.20
42145;DHT22;27813;43.516;11.890;2022-09-09T03:59:21;18.30;95.20
42145;DHT22;27813;43.516;11.890;2022-09-09T04:03:27;18.40;95.10
42145;DHT22;27813;43.516;11.890;2022-09-09T04:07:32;18.40;95.00
42145;DHT22;27813;43.516;11.890;2022-09-09T04:11:36;18.40;95.20
42145;DHT22;27813;43.516;11.890;2022-09-09T04:15:41;18.50;95.20
42145;DHT22;27813;43.516;11.890;2022-09-09T04:19:47;18.50;95.40
42145;DHT22;27813;43.516;11.890;2022-09-09T04:23:52;18.70;95.50
42145;DHT22;27813;43.516;11.890;2022-09-09T04:27:58;18.70;95.40
42145;DHT22;27813;43.516;11.890;2022-09-09T04:32:03;18.70;95.40
42145;DHT22;27813;43.516;11.890;2022-09-09T04:36:10;18.80;95.40
42145;DHT22;27813;43.516;11.890;2022-09-09T04:40:14;18.70;95.20
42145;DHT22;27813;43.516;11.890;2022-09-09T04:44:19;18.70;95.10
42145;DHT22;27813;43.516;11.890;2022-09-09T04:48:24;18.50;95.00
42145;DHT22;27813;43.516;11.890;2022-09-09T04:52:29;18.40;94.70
42145;DHT22;27813;43.516;11.890;2022-09-09T04:56:33;18.40;94.80
42145;DHT22;27813;43.516;11.890;2022-09-09T05:00:38;18.40;94.80
42145;DHT22;27813;43.516;11.890;2022-09-09T05:04:43;18.30;94.80
42145;DHT22;27813;43.516;11.890;2022-09-09T05:08:52;18.30;94.80
42145;DHT22;27813;43.516;11.890;2022-09-09T05:13:01;18.30;94.80
42145;DHT22;27813;43.516;11.890;2022-09-09T05:17:06;18.30;94.80
42145;DHT22;27813;43.516;11.890;2022-09-09T05:21:15;18.40;94.80
42145;DHT22;27813;43.516;11.890;2022-09-09T05:25:20;18.50;94.80
42145;DHT22;27813;43.516;11.890;2022-09-09T05:29:26;18.90;95.40
42145;DHT22;27813;43.516;11.890;2022-09-09T05:33:32;19.70;94.60
42145;DHT22;27813;43.516;11.890;2022-09-09T05:37:37;20.50;93.30
42145;DHT22;27813;43.516;11.890;2022-09-09T05:41:41;20.60;92.70
42145;DHT22;27813;43.516;11.890;2022-09-09T05:45:47;20.50;92.20
42145;DHT22;27813;43.516;11.890;2022-09-09T05:49:52;20.20;92.20
42145;DHT22;27813;43.516;11.890;2022-09-09T05:53:58;20.40;92.70
42145;DHT22;27813;43.516;11.890;2022-09-09T05:58:07;21.10;91.10
42145;DHT22;27813;43.516;11.890;2022-09-09T06:02:12;21.50;90.30
42145;DHT22;27813;43.516;11.890;2022-09-09T06:06:19;22.10;89.40
42145;DHT22;27813;43.516;11.890;2022-09-09T06:10:30;22.60;88.90
42145;DHT22;27813;43.516;11.890;2022-09-09T06:14:34;23.20;87.60
42145;DHT22;27813;43.516;11.890;2022-09-09T06:18:40;23.60;86.70
42145;DHT22;27813;43.516;11.890;2022-09-09T06:22:44;23.90;86.10
42145;DHT22;27813;43.516;11.890;2022-09-09T06:26:51;24.30;84.40
42145;DHT22;27813;43.516;11.890;2022-09-09T06:31:00;24.80;82.20
42145;DHT22;27813;43.516;11.890;2022-09-09T06:35:06;25.30;80.10
42145;DHT22;27813;43.516;11.890;2022-09-09T06:39:11;24.60;81.80
42145;DHT22;27813;43.516;11.890;2022-09-09T06:43:18;23.90;84.40
42145;DHT22;27813;43.516;11.890;2022-09-09T06:47:28;23.40;86.90
42145;DHT22;27813;43.516;11.890;2022-09-09T06:51:35;23.20;88.90
42145;DHT22;27813;43.516;11.890;2022-09-09T06:55:41;23.20;89.60
42145;DHT22;27813;43.516;11.890;2022-09-09T06:59:48;23.00;89.30
42145;DHT22;27813;43.516;11.890;2022-09-09T07:03:56;22.90;89.80
42145;DHT22;27813;43.516;11.890;2022-09-09T07:08:03;22.80;90.00
42145;DHT22;27813;43.516;11.890;2022-09-09T07:12:08;22.90;90.30
42145;DHT22;27813;43.516;11.890;2022-09-09T07:16:19;22.90;90.30
42145;DHT22;27813;43.516;11.890;2022-09-09T07:20:36;22.90;90.50
42145;DHT22;27813;43.516;11.890;2022-09-09T07:24:40;23.00;90.90
42145;DHT22;27813;43.516;11.890;2022-09-09T07:28:45;23.10;91.00
42145;DHT22;27813;43.516;11.890;2022-09-09T07:32:52;23.10;91.20
42145;DHT22;27813;43.516;11.890;2022-09-09T07:36:59;23.30;91.50
42145;DHT22;27813;43.516;11.890;2022-09-09T07:41:10;23.50;91.70
42145;DHT22;27813;43.516;11.890;2022-09-09T07:45:17;23.50;91.50
42145;DHT22;27813;43.516;11.890;2022-09-09T07:49:22;23.50;91.40
42145;DHT22;27813;43.516;11.890;2022-09-09T07:53:36;23.50;91.40
42145;DHT22;27813;43.516;11.890;2022-09-09T07:57:41;23.60;91.50
42145;DHT22;27813;43.516;11.890;2022-09-09T08:01:49;23.60;91.40
42145;DHT22;27813;43.516;11.890;2022-09-09T08:06:07;23.50;91.40
42145;DHT22;27813;43.516;11.890;2022-09-09T08:10:12;23.50;91.50
42145;DHT22;27813;43.516;11.890;2022-09-09T08:14:20;23.50;91.70
42145;DHT22;27813;43.516;11.890;2022-09-09T08:18:27;23.50;91.90
42145;DHT22;27813;43.516;11.890;2022-09-09T08:22:31;23.40;91.80
42145;DHT22;27813;43.516;11.890;2022-09-09T08:26:40;23.40;91.80
42145;DHT22;27813;43.516;11.890;2022-09-09T08:30:47;23.30;91.90
42145;DHT22;27813;43.516;11.890;2022-09-09T08:34:53;23.40;91.80
42145;DHT22;27813;43.516;11.890;2022-09-09T08:39:06;23.30;91.80
42145;DHT22;27813;43.516;11.890;2022-09-09T08:43:11;23.30;92.00
42145;DHT22;27813;43.516;11.890;2022-09-09T08:51:49;23.50;92.20
42145;DHT22;27813;43.516;11.890;2022-09-09T08:56:25;23.70;92.60
42145;DHT22;27813;43.516;11.890;2022-09-09T09:01:09;24.00;93.20
42145;DHT22;27813;43.516;11.890;2022-09-09T09:05:27;24.40;92.80
42145;DHT22;27813;43.516;11.890;2022-09-09T09:09:49;24.50;92.70
42145;DHT22;27813;43.516;11.890;2022-09-09T09:14:02;24.90;92.40
42145;DHT22;27813;43.516;11.890;2022-09-09T09:18:10;25.10;91.90
42145;DHT22;27813;43.516;11.890;2022-09-09T09:22:39;25.20;91.70
42145;DHT22;27813;43.516;11.890;2022-09-09T09:26:48;25.40;91.50
42145;DHT22;27813;43.516;11.890;2022-09-09T09:31:12;25.80;91.10
42145;DHT22;27813;43.516;11.890;2022-09-09T09:35:22;26.10;90.10
42145;DHT22;27813;43.516;11.890;2022-09-09T09:39:29;26.30;89.20
42145;DHT22;27813;43.516;11.890;2022-09-09T09:44:06;26.10;88.40
42145;DHT22;27813;43.516;11.890;2022-09-09T09:48:26;25.60;88.30
42145;DHT22;27813;43.516;11.890;2022-09-09T09:52:36;25.30;89.10
42145;DHT22;27813;43.516;11.890;2022-09-09T09:56:44;25.10;89.70
42145;DHT22;27813;43.516;11.890;2022-09-09T10:00:52;25.20;89.90
42145;DHT22;27813;43.516;11.890;2022-09-09T10:05:06;25.70;89.50
42145;DHT22;27813;43.516;11.890;2022-09-09T10:09:29;26.20;88.40
42145;DHT22;27813;43.516;11.890;2022-09-09T10:13:44;26.60;87.00
42145;DHT22;27813;43.516;11.890;2022-09-09T10:22:14;27.50;84.80
42145;DHT22;27813;43.516;11.890;2022-09-09T10:26:47;27.60;84.00
42145;DHT22;27813;43.516;11.890;2022-09-09T10:31:16;27.60;83.30
42145;DHT22;27813;43.516;11.890;2022-09-09T10:40:20;27.20;83.10
42145;DHT22;27813;43.516;11.890;2022-09-09T10:57:48;26.60;82.60
42145;DHT22;27813;43.516;11.890;2022-09-09T11:06:22;26.50;82.30
42145;DHT22;27813;43.516;11.890;2022-09-09T11:10:39;26.50;82.70
42145;DHT22;27813;43.516;11.890;2022-09-09T11:15:31;26.50;82.70
42145;DHT22;27813;43.516;11.890;2022-09-09T11:19:34;26.50;82.70
42145;DHT22;27813;43.516;11.890;2022-09-09T11:23:59;26.60;81.80
42145;DHT22;27813;43.516;11.890;2022-09-09T11:41:48;27.10;79.20
42145;DHT22;27813;43.516;11.890;2022-09-09T11:45:56;27.10;78.00
42145;DHT22;27813;43.516;11.890;2022-09-09T11:50:37;27.10;77.90
42145;DHT22;27813;43.516;11.890;2022-09-09T11:54:49;27.10;77.60
42145;DHT22;27813;43.516;11.890;2022-09-09T11:59:29;27.00;76.50
42145;DHT22;27813;43.516;11.890;2022-09-09T12:03:48;27.00;75.90
42145;DHT22;27813;43.516;11.890;2022-09-09T12:07:58;27.20;75.30
42145;DHT22;27813;43.516;11.890;2022-09-09T12:16:47;27.30;73.90
42145;DHT22;27813;43.516;11.890;2022-09-09T12:21:03;27.60;73.60
42145;DHT22;27813;43.516;11.890;2022-09-09T12:29:50;28.00;70.40
42145;DHT22;27813;43.516;11.890;2022-09-09T12:38:39;28.00;66.90
42145;DHT22;27813;43.516;11.890;2022-09-09T12:42:44;28.20;65.60
42145;DHT22;27813;43.516;11.890;2022-09-09T12:46:48;28.10;65.60
42145;DHT22;27813;43.516;11.890;2022-09-09T12:50:53;28.10;65.40
42145;DHT22;27813;43.516;11.890;2022-09-09T12:55:05;28.20;65.10
42145;DHT22;27813;43.516;11.890;2022-09-09T12:59:24;28.30;64.20
42145;DHT22;27813;43.516;11.890;2022-09-09T13:03:43;28.30;62.70
42145;DHT22;27813;43.516;11.890;2022-09-09T13:07:51;28.30;62.00
42145;DHT22;27813;43.516;11.890;2022-09-09T13:11:56;28.20;60.10
42145;DHT22;27813;43.516;11.890;2022-09-09T13:16:18;28.20;60.20
42145;DHT22;27813;43.516;11.890;2022-09-09T13:20:25;28.20;60.40
42145;DHT22;27813;43.516;11.890;2022-09-09T13:24:34;28.20;58.80
42145;DHT22;27813;43.516;11.890;2022-09-09T13:28:39;28.10;57.20
42145;DHT22;27813;43.516;11.890;2022-09-09T13:32:44;28.00;56.00
42145;DHT22;27813;43.516;11.890;2022-09-09T13:36:50;27.70;55.40
42145;DHT22;27813;43.516;11.890;2022-09-09T13:41:05;27.50;55.80
42145;DHT22;27813;43.516;11.890;2022-09-09T13:45:21;27.40;55.30
42145;DHT22;27813;43.516;11.890;2022-09-09T13:49:29;27.20;54.30
42145;DHT22;27813;43.516;11.890;2022-09-09T13:53:38;27.00;54.60
42145;DHT22;27813;43.516;11.890;2022-09-09T14:02:04;26.80;54.50
42145;DHT22;27813;43.516;11.890;2022-09-09T14:06:12;26.70;54.40
42145;DHT22;27813;43.516;11.890;2022-09-09T14:10:17;26.70;55.10
42145;DHT22;27813;43.516;11.890;2022-09-09T14:14:22;26.60;55.20
42145;DHT22;27813;43.516;11.890;2022-09-09T14:18:26;26.50;55.40
42145;DHT22;27813;43.516;11.890;2022-09-09T14:22:31;26.40;55.30
42145;DHT22;27813;43.516;11.890;2022-09-09T14:26:36;26.40;54.40
42145;DHT22;27813;43.516;11.890;2022-09-09T14:30:43;26.40;53.80
42145;DHT22;27813;43.516;11.890;2022-09-09T14:34:54;26.30;53.90
42145;DHT22;27813;43.516;11.890;2022-09-09T14:39:01;26.30;54.00
42145;DHT22;27813;43.516;11.890;2022-09-09T14:43:11;26.30;53.10
42145;DHT22;27813;43.516;11.890;2022-09-09T14:47:17;26.20;52.80
42145;DHT22;27813;43.516;11.890;2022-09-09T14:51:23;26.10;52.70
42145;DHT22;27813;43.516;11.890;2022-09-09T14:55:29;26.00;52.00
42145;DHT22;27813;43.516;11.890;2022-09-09T14:59:33;26.00;51.90
42145;DHT22;27813;43.516;11.890;2022-09-09T15:03:39;25.80;51.60
42145;DHT22;27813;43.516;11.890;2022-09-09T15:07:44;25.80;51.80
42145;DHT22;27813;43.516;11.890;2022-09-09T15:11:52;25.60;51.40
42145;DHT22;27813;43.516;11.890;2022-09-09T15:15:56;25.60;52.10
42145;DHT22;27813;43.516;11.890;2022-09-09T15:20:08;25.50;52.30
42145;DHT22;27813;43.516;11.890;2022-09-09T15:24:13;25.50;52.30
42145;DHT22;27813;43.516;11.890;2022-09-09T15:28:17;25.40;51.90
42145;DHT22;27813;43.516;11.890;2022-09-09T15:32:22;25.30;51.80
42145;DHT22;27813;43.516;11.890;2022-09-09T15:36:38;25.30;51.90
42145;DHT22;27813;43.516;11.890;2022-09-09T15:40:44;25.20;52.00
42145;DHT22;27813;43.516;11.890;2022-09-09T15:44:50;25.20;52.20
42145;DHT22;27813;43.516;11.890;2022-09-09T15:48:58;25.10;52.40
42145;DHT22;27813;43.516;11.890;2022-09-09T15:53:06;25.00;52.20
42145;DHT22;27813;43.516;11.890;2022-09-09T15:57:12;25.00;52.40
42145;DHT22;27813;43.516;11.890;2022-09-09T16:01:24;24.90;52.70
42145;DHT22;27813;43.516;11.890;2022-09-09T16:05:29;24.80;53.00
42145;DHT22;27813;43.516;11.890;2022-09-09T16:09:34;24.70;52.90
42145;DHT22;27813;43.516;11.890;2022-09-09T16:13:39;24.60;53.10
42145;DHT22;27813;43.516;11.890;2022-09-09T16:17:44;24.50;53.30
42145;DHT22;27813;43.516;11.890;2022-09-09T16:21:49;24.50;53.60
42145;DHT22;27813;43.516;11.890;2022-09-09T16:25:56;24.40;53.90
42145;DHT22;27813;43.516;11.890;2022-09-09T16:30:07;24.20;54.40
42145;DHT22;27813;43.516;11.890;2022-09-09T16:34:12;24.10;55.00
42145;DHT22;27813;43.516;11.890;2022-09-09T16:38:16;24.00;55.50
42145;DHT22;27813;43.516;11.890;2022-09-09T16:42:22;23.90;55.80
42145;DHT22;27813;43.516;11.890;2022-09-09T16:46:28;23.90;56.10
42145;DHT22;27813;43.516;11.890;2022-09-09T16:50:33;23.80;56.60
42145;DHT22;27813;43.516;11.890;2022-09-09T16:54:38;23.60;57.00
42145;DHT22;27813;43.516;11.890;2022-09-09T16:58:43;23.50;57.40
42145;DHT22;27813;43.516;11.890;2022-09-09T17:02:49;23.50;57.80
42145;DHT22;27813;43.516;11.890;2022-09-09T17:06:54;23.20;58.10
42145;DHT22;27813;43.516;11.890;2022-09-09T17:10:59;23.00;58.60
42145;DHT22;27813;43.516;11.890;2022-09-09T17:15:06;22.90;59.20
42145;DHT22;27813;43.516;11.890;2022-09-09T17:19:13;22.70;59.80
42145;DHT22;27813;43.516;11.890;2022-09-09T17:23:17;22.40;60.40
42145;DHT22;27813;43.516;11.890;2022-09-09T17:27:23;22.20;61.00
42145;DHT22;27813;43.516;11.890;2022-09-09T17:31:29;22.00;61.60
42145;DHT22;27813;43.516;11.890;2022-09-09T17:35:34;21.90;62.10
42145;DHT22;27813;43.516;11.890;2022-09-09T17:39:38;21.70;62.60
42145;DHT22;27813;43.516;11.890;2022-09-09T17:43:45;21.60;63.00
42145;DHT22;27813;43.516;11.890;2022-09-09T17:47:51;21.40;63.60
42145;DHT22;27813;43.516;11.890;2022-09-09T17:51:59;21.30;64.10
42145;DHT22;27813;43.516;11.890;2022-09-09T17:56:06;21.20;64.70
42145;DHT22;27813;43.516;11.890;2022-09-09T18:00:11;21.00;65.20
42145;DHT22;27813;43.516;11.890;2022-09-09T18:04:17;20.90;65.60
42145;DHT22;27813;43.516;11.890;2022-09-09T18:08:21;20.80;66.10
42145;DHT22;27813;43.516;11.890;2022-09-09T18:12:26;20.70;66.60
42145;DHT22;27813;43.516;11.890;2022-09-09T18:16:33;20.60;67.00
42145;DHT22;27813;43.516;11.890;2022-09-09T18:20:40;20.50;67.50
42145;DHT22;27813;43.516;11.890;2022-09-09T18:24:44;20.50;67.90
42145;DHT22;27813;43.516;11.890;2022-09-09T18:28:55;20.50;68.10
42145;DHT22;27813;43.516;11.890;2022-09-09T18:33:00;20.40;68.50
42145;DHT22;27813;43.516;11.890;2022-09-09T18:37:05;20.40;68.90
42145;DHT22;27813;43.516;11.890;2022-09-09T18:41:15;20.40;69.30
42145;DHT22;27813;43.516;11.890;2022-09-09T18:45:20;20.30;69.70
42145;DHT22;27813;43.516;11.890;2022-09-09T18:49:26;20.40;70.00
42145;DHT22;27813;43.516;11.890;2022-09-09T18:53:31;20.50;70.10
42145;DHT22;27813;43.516;11.890;2022-09-09T18:57:37;20.50;70.30
42145;DHT22;27813;43.516;11.890;2022-09-09T19:01:42;20.40;70.60
42145;DHT22;27813;43.516;11.890;2022-09-09T19:05:47;20.30;71.00
42145;DHT22;27813;43.516;11.890;2022-09-09T19:09:52;20.20;71.20
42145;DHT22;27813;43.516;11.890;2022-09-09T19:14:01;20.10;71.50
42145;DHT22;27813;43.516;11.890;2022-09-09T19:18:07;20.00;71.80
42145;DHT22;27813;43.516;11.890;2022-09-09T19:22:14;20.00;72.20
42145;DHT22;27813;43.516;11.890;2022-09-09T19:26:19;19.90;72.50
42145;DHT22;27813;43.516;11.890;2022-09-09T19:30:26;19.80;72.90
42145;DHT22;27813;43.516;11.890;2022-09-09T19:34:32;19.90;73.10
42145;DHT22;27813;43.516;11.890;2022-09-09T19:38:37;19.90;73.20
42145;DHT22;27813;43.516;11.890;2022-09-09T19:42:42;19.80;73.40
42145;DHT22;27813;43.516;11.890;2022-09-09T19:46:47;19.80;73.70
42145;DHT22;27813;43.516;11.890;2022-09-09T19:50:52;19.60;74.00
42145;DHT22;27813;43.516;11.890;2022-09-09T19:54:58;19.50;74.50
42145;DHT22;27813;43.516;11.890;2022-09-09T19:59:05;19.50;74.80
42145;DHT22;27813;43.516;11.890;2022-09-09T20:03:12;19.40;75.20
42145;DHT22;27813;43.516;11.890;2022-09-09T20:07:23;19.40;75.40
42145;DHT22;27813;43.516;11.890;2022-09-09T20:11:28;19.40;75.50
42145;DHT22;27813;43.516;11.890;2022-09-09T20:15:36;19.40;75.80
42145;DHT22;27813;43.516;11.890;2022-09-09T20:19:41;19.30;76.00
42145;DHT22;27813;43.516;11.890;2022-09-09T20:23:47;19.20;76.40
42145;DHT22;27813;43.516;11.890;2022-09-09T20:27:53;19.10;76.70
42145;DHT22;27813;43.516;11.890;2022-09-09T20:31:58;19.00;77.00
42145;DHT22;27813;43.516;11.890;2022-09-09T20:40:23;18.90;77.60
42145;DHT22;27813;43.516;11.890;2022-09-09T20:44:35;18.80;77.80
42145;DHT22;27813;43.516;11.890;2022-09-09T20:48:41;18.80;78.00
42145;DHT22;27813;43.516;11.890;2022-09-09T20:52:50;18.70;78.20
42145;DHT22;27813;43.516;11.890;2022-09-09T20:56:56;18.60;78.40
42145;DHT22;27813;43.516;11.890;2022-09-09T21:01:05;18.40;78.80
42145;DHT22;27813;43.516;11.890;2022-09-09T21:05:10;18.40;79.10
42145;DHT22;27813;43.516;11.890;2022-09-09T21:09:22;18.30;79.30
42145;DHT22;27813;43.516;11.890;2022-09-09T21:13:32;18.40;79.40
42145;DHT22;27813;43.516;11.890;2022-09-09T21:17:37;18.30;79.50
42145;DHT22;27813;43.516;11.890;2022-09-09T21:21:44;18.40;79.60
42145;DHT22;27813;43.516;11.890;2022-09-09T21:25:52;18.40;79.70
42145;DHT22;27813;43.516;11.890;2022-09-09T21:29:57;18.40;79.70
42145;DHT22;27813;43.516;11.890;2022-09-09T21:34:01;18.50;79.80
42145;DHT22;27813;43.516;11.890;2022-09-09T21:38:14;18.50;80.00
42145;DHT22;27813;43.516;11.890;2022-09-09T21:42:19;18.40;80.10
42145;DHT22;27813;43.516;11.890;2022-09-09T21:46:24;18.40;80.40
42145;DHT22;27813;43.516;11.890;2022-09-09T21:50:35;18.40;80.30
42145;DHT22;27813;43.516;11.890;2022-09-09T21:54:40;18.40;80.40
42145;DHT22;27813;43.516;11.890;2022-09-09T21:58:56;18.40;80.50
42145;DHT22;27813;43.516;11.890;2022-09-09T22:03:04;18.40;80.60
42145;DHT22;27813;43.516;11.890;2022-09-09T22:07:09;18.40;80.80
42145;DHT22;27813;43.516;11.890;2022-09-09T22:11:18;18.40;80.90
42145;DHT22;27813;43.516;11.890;2022-09-09T22:15:23;18.40;81.00
42145;DHT22;27813;43.516;11.890;2022-09-09T22:19:29;18.30;81.10
42145;DHT22;27813;43.516;11.890;2022-09-09T22:23:34;18.20;81.30
42145;DHT22;27813;43.516;11.890;2022-09-09T22:27:39;18.10;81.50
42145;DHT22;27813;43.516;11.890;2022-09-09T22:31:45;18.00;81.80
42145;DHT22;27813;43.516;11.890;2022-09-09T22:35:50;18.00;82.00
42145;DHT22;27813;43.516;11.890;2022-09-09T22:39:55;17.80;82.10
42145;DHT22;27813;43.516;11.890;2022-09-09T22:44:00;17.60;82.50
42145;DHT22;27813;43.516;11.890;2022-09-09T22:48:05;17.50;82.60
42145;DHT22;27813;43.516;11.890;2022-09-09T22:52:09;17.50;83.00
42145;DHT22;27813;43.516;11.890;2022-09-09T22:56:16;17.40;83.10
42145;DHT22;27813;43.516;11.890;2022-09-09T23:00:22;17.30;83.20
42145;DHT22;27813;43.516;11.890;2022-09-09T23:04:26;17.30;83.50
42145;DHT22;27813;43.516;11.890;2022-09-09T23:08:34;17.20;83.70
42145;DHT22;27813;43.516;11.890;2022-09-09T23:12:40;17.20;83.70
42145;DHT22;27813;43.516;11.890;2022-09-09T23:16:45;17.10;83.90
42145;DHT22;27813;43.516;11.890;2022-09-09T23:20:57;17.00;84.20
42145;DHT22;27813;43.516;11.890;2022-09-09T23:25:04;17.00;84.30
42145;DHT22;27813;43.516;11.890;2022-09-09T23:29:10;16.90;84.40
